sensor_id;sensor_type;location;lat;lon;timestamp;P1;durP1;ratioP1;P2;durP2;ratioP2
3726;SDS011;1879;45.876;12.300;2022-09-27T00:01:43;19.73;;;15.53;;
3726;SDS011;1879;45.876;12.300;2022-09-27T00:04:12;20.27;;;15.90;;
3726;SDS011;1879;45.876;12.300;2022-09-27T00:06:39;17.03;;;15.23;;
3726;SDS011;1879;45.876;12.300;2022-09-27T00:09:06;16.43;;;13.03;;
3726;SDS011;1879;45.876;12.300;2022-09-27T00:11:35;12.37;;;11.07;;
3726;SDS011;1879;45.876;12.300;2022-09-27T00:14:03;17.50;;;14.87;;
3726;SDS011;1879;45.876;12.300;2022-09-27T00:16:32;14.30;;;12.27;;
3726;SDS011;1879;45.876;12.300;2022-09-27T00:19:01;12.10;;;10.90;;
3726;SDS011;1879;45.876;12.300;2022-09-27T00:21:31;14.60;;;12.60;;
3726;SDS011;1879;45.876;12.300;2022-09-27T00:23:59;11.33;;;10.23;;
3726;SDS011;1879;45.876;12.300;2022-09-27T00:26:26;11.60;;;10.50;;
3726;SDS011;1879;45.876;12.300;2022-09-27T00:28:53;11.40;;;10.27;;
3726;SDS011;1879;45.876;12.300;2022-09-27T00:31:21;11.00;;;10.00;;
3726;SDS011;1879;45.876;12.300;2022-09-27T00:33:50;10.00;;;9.00;;
3726;SDS011;1879;45.876;12.300;2022-09-27T00:36:19;10.47;;;9.47;;
3726;SDS011;1879;45.876;12.300;2022-09-27T00:38:48;10.17;;;9.27;;
3726;SDS011;1879;45.876;12.300;2022-09-27T00:41:16;11.10;;;10.00;;
3726;SDS011;1879;45.876;12.300;2022-09-27T00:43:46;9.90;;;9.00;;
3726;SDS011;1879;45.876;12.300;2022-09-27T00:46:17;9.87;;;8.97;;
3726;SDS011;1879;45.876;12.300;2022-09-27T00:48:48;10.30;;;9.30;;
3726;SDS011;1879;45.876;12.300;2022-09-27T00:51:26;10.30;;;9.40;;
3726;SDS011;1879;45.876;12.300;2022-09-27T00:53:55;9.97;;;8.87;;
3726;SDS011;1879;45.876;12.300;2022-09-27T00:56:25;11.00;;;9.87;;
3726;SDS011;1879;45.876;12.300;2022-09-27T00:58:56;11.07;;;10.07;;
3726;SDS011;1879;45.876;12.300;2022-09-27T01:01:26;12.07;;;10.87;;
3726;SDS011;1879;45.876;12.300;2022-09-27T01:03:55;11.27;;;10.10;;
3726;SDS011;1879;45.876;12.300;2022-09-27T01:06:26;12.33;;;11.10;;
3726;SDS011;1879;45.876;12.300;2022-09-27T01:08:53;10.37;;;9.37;;
3726;SDS011;1879;45.876;12.300;2022-09-27T01:11:24;11.07;;;9.97;;
3726;SDS011;1879;45.876;12.300;2022-09-27T01:14:07;10.40;;;9.40;;
3726;SDS011;1879;45.876;12.300;2022-09-27T01:16:47;9.13;;;8.23;;
3726;SDS011;1879;45.876;12.300;2022-09-27T01:19:30;8.90;;;8.00;;
3726;SDS011;1879;45.876;12.300;2022-09-27T01:22:20;8.83;;;8.03;;
3726;SDS011;1879;45.876;12.300;2022-09-27T01:24:54;7.60;;;6.90;;
3726;SDS011;1879;45.876;12.300;2022-09-27T01:30:37;9.67;;;8.77;;
3726;SDS011;1879;45.876;12.300;2022-09-27T01:36:15;8.33;;;7.57;;
3726;SDS011;1879;45.876;12.300;2022-09-27T01:38:52;8.73;;;7.00;;
3726;SDS011;1879;45.876;12.300;2022-09-27T01:41:27;7.50;;;6.63;;
3726;SDS011;1879;45.876;12.300;2022-09-27T01:44:01;7.97;;;6.87;;
3726;SDS011;1879;45.876;12.300;2022-09-27T01:46:34;8.60;;;7.90;;
3726;SDS011;1879;45.876;12.300;2022-09-27T01:49:07;7.50;;;6.80;;
3726;SDS011;1879;45.876;12.300;2022-09-27T01:51:38;8.17;;;7.47;;
3726;SDS011;1879;45.876;12.300;2022-09-27T01:54:10;7.80;;;7.00;;
3726;SDS011;1879;45.876;12.300;2022-09-27T01:56:40;6.87;;;6.17;;
3726;SDS011;1879;45.876;12.300;2022-09-27T01:59:11;6.83;;;6.20;;
3726;SDS011;1879;45.876;12.300;2022-09-27T02:01:42;5.93;;;5.43;;
3726;SDS011;1879;45.876;12.300;2022-09-27T02:04:14;4.93;;;4.50;;
3726;SDS011;1879;45.876;12.300;2022-09-27T02:06:46;5.90;;;5.40;;
3726;SDS011;1879;45.876;12.300;2022-09-27T02:09:16;4.90;;;4.47;;
3726;SDS011;1879;45.876;12.300;2022-09-27T02:11:48;5.37;;;4.87;;
3726;SDS011;1879;45.876;12.300;2022-09-27T02:14:21;5.57;;;4.97;;
3726;SDS011;1879;45.876;12.300;2022-09-27T02:16:55;5.57;;;4.50;;
3726;SDS011;1879;45.876;12.300;2022-09-27T02:19:33;5.50;;;4.90;;
3726;SDS011;1879;45.876;12.300;2022-09-27T02:22:09;5.77;;;5.27;;
3726;SDS011;1879;45.876;12.300;2022-09-27T02:24:43;4.23;;;3.90;;
3726;SDS011;1879;45.876;12.300;2022-09-27T02:27:16;5.50;;;4.70;;
3726;SDS011;1879;45.876;12.300;2022-09-27T02:29:48;4.50;;;4.10;;
3726;SDS011;1879;45.876;12.300;2022-09-27T02:32:19;5.27;;;4.77;;
3726;SDS011;1879;45.876;12.300;2022-09-27T02:34:46;4.93;;;4.40;;
3726;SDS011;1879;45.876;12.300;2022-09-27T02:37:15;5.27;;;4.77;;
3726;SDS011;1879;45.876;12.300;2022-09-27T02:39:43;5.33;;;4.83;;
3726;SDS011;1879;45.876;12.300;2022-09-27T02:42:10;5.23;;;4.83;;
3726;SDS011;1879;45.876;12.300;2022-09-27T02:44:37;5.37;;;4.97;;
3726;SDS011;1879;45.876;12.300;2022-09-27T02:53:19;6.30;;;5.80;;
3726;SDS011;1879;45.876;12.300;2022-09-27T02:55:55;5.73;;;5.23;;
3726;SDS011;1879;45.876;12.300;2022-09-27T02:58:31;7.07;;;6.47;;
3726;SDS011;1879;45.876;12.300;2022-09-27T03:01:06;7.37;;;6.67;;
3726;SDS011;1879;45.876;12.300;2022-09-27T03:03:41;6.57;;;5.97;;
3726;SDS011;1879;45.876;12.300;2022-09-27T03:06:15;7.70;;;7.03;;
3726;SDS011;1879;45.876;12.300;2022-09-27T03:08:45;7.53;;;6.80;;
3726;SDS011;1879;45.876;12.300;2022-09-27T03:11:12;8.07;;;7.10;;
3726;SDS011;1879;45.876;12.300;2022-09-27T03:13:40;7.70;;;6.90;;
3726;SDS011;1879;45.876;12.300;2022-09-27T03:16:07;8.77;;;7.97;;
3726;SDS011;1879;45.876;12.300;2022-09-27T03:18:34;6.93;;;6.33;;
3726;SDS011;1879;45.876;12.300;2022-09-27T03:21:03;6.37;;;5.77;;
3726;SDS011;1879;45.876;12.300;2022-09-27T03:23:30;6.47;;;5.87;;
3726;SDS011;1879;45.876;12.300;2022-09-27T03:25:56;6.80;;;6.20;;
3726;SDS011;1879;45.876;12.300;2022-09-27T03:28:23;7.83;;;7.07;;
3726;SDS011;1879;45.876;12.300;2022-09-27T03:30:53;5.70;;;5.10;;
3726;SDS011;1879;45.876;12.300;2022-09-27T03:33:20;6.90;;;6.30;;
3726;SDS011;1879;45.876;12.300;2022-09-27T03:35:47;6.80;;;6.20;;
3726;SDS011;1879;45.876;12.300;2022-09-27T03:38:16;5.87;;;5.37;;
3726;SDS011;1879;45.876;12.300;2022-09-27T03:40:43;6.60;;;6.00;;
3726;SDS011;1879;45.876;12.300;2022-09-27T03:43:10;6.90;;;6.30;;
3726;SDS011;1879;45.876;12.300;2022-09-27T03:45:37;7.30;;;6.60;;
3726;SDS011;1879;45.876;12.300;2022-09-27T03:48:04;7.27;;;6.60;;
3726;SDS011;1879;45.876;12.300;2022-09-27T03:50:31;6.53;;;6.00;;
3726;SDS011;1879;45.876;12.300;2022-09-27T03:52:58;6.93;;;6.33;;
3726;SDS011;1879;45.876;12.300;2022-09-27T03:55:26;7.90;;;7.10;;
3726;SDS011;1879;45.876;12.300;2022-09-27T03:57:53;6.77;;;6.17;;
3726;SDS011;1879;45.876;12.300;2022-09-27T04:00:20;7.87;;;7.07;;
3726;SDS011;1879;45.876;12.300;2022-09-27T04:02:48;7.87;;;7.10;;
3726;SDS011;1879;45.876;12.300;2022-09-27T04:05:15;7.20;;;6.50;;
3726;SDS011;1879;45.876;12.300;2022-09-27T04:07:45;6.90;;;6.30;;
3726;SDS011;1879;45.876;12.300;2022-09-27T04:10:12;9.07;;;8.27;;
3726;SDS011;1879;45.876;12.300;2022-09-27T04:12:40;8.10;;;7.30;;
3726;SDS011;1879;45.876;12.300;2022-09-27T04:15:09;9.83;;;8.30;;
3726;SDS011;1879;45.876;12.300;2022-09-27T04:17:36;8.33;;;7.27;;
3726;SDS011;1879;45.876;12.300;2022-09-27T04:20:06;8.87;;;8.07;;
3726;SDS011;1879;45.876;12.300;2022-09-27T04:22:33;9.13;;;8.33;;
3726;SDS011;1879;45.876;12.300;2022-09-27T04:25:00;9.93;;;9.03;;
3726;SDS011;1879;45.876;12.300;2022-09-27T04:27:27;9.37;;;8.57;;
3726;SDS011;1879;45.876;12.300;2022-09-27T04:29:55;9.47;;;8.57;;
3726;SDS011;1879;45.876;12.300;2022-09-27T04:32:23;10.70;;;9.60;;
3726;SDS011;1879;45.876;12.300;2022-09-27T04:34:50;9.87;;;8.87;;
3726;SDS011;1879;45.876;12.300;2022-09-27T04:37:31;9.17;;;7.50;;
3726;SDS011;1879;45.876;12.300;2022-09-27T04:39:58;10.37;;;9.37;;
3726;SDS011;1879;45.876;12.300;2022-09-27T04:42:25;10.10;;;9.10;;
3726;SDS011;1879;45.876;12.300;2022-09-27T04:44:52;9.80;;;8.80;;
3726;SDS011;1879;45.876;12.300;2022-09-27T04:47:20;10.83;;;9.73;;
3726;SDS011;1879;45.876;12.300;2022-09-27T04:49:47;11.23;;;10.07;;
3726;SDS011;1879;45.876;12.300;2022-09-27T04:52:15;10.80;;;9.70;;
3726;SDS011;1879;45.876;12.300;2022-09-27T04:54:42;9.03;;;8.13;;
3726;SDS011;1879;45.876;12.300;2022-09-27T04:57:09;10.50;;;9.40;;
3726;SDS011;1879;45.876;12.300;2022-09-27T04:59:38;10.57;;;9.47;;
3726;SDS011;1879;45.876;12.300;2022-09-27T05:02:06;14.93;;;10.53;;
3726;SDS011;1879;45.876;12.300;2022-09-27T05:04:35;11.23;;;10.23;;
3726;SDS011;1879;45.876;12.300;2022-09-27T05:07:02;11.00;;;10.00;;
3726;SDS011;1879;45.876;12.300;2022-09-27T05:09:29;12.00;;;10.67;;
3726;SDS011;1879;45.876;12.300;2022-09-27T05:11:56;11.20;;;10.10;;
3726;SDS011;1879;45.876;12.300;2022-09-27T05:14:23;10.67;;;9.67;;
3726;SDS011;1879;45.876;12.300;2022-09-27T05:16:51;10.60;;;9.60;;
3726;SDS011;1879;45.876;12.300;2022-09-27T05:19:19;10.37;;;9.33;;
3726;SDS011;1879;45.876;12.300;2022-09-27T05:21:47;11.60;;;10.50;;
3726;SDS011;1879;45.876;12.300;2022-09-27T05:24:14;10.80;;;9.77;;
3726;SDS011;1879;45.876;12.300;2022-09-27T05:26:41;11.60;;;10.40;;
3726;SDS011;1879;45.876;12.300;2022-09-27T05:29:09;11.27;;;10.17;;
3726;SDS011;1879;45.876;12.300;2022-09-27T05:31:36;11.77;;;10.57;;
3726;SDS011;1879;45.876;12.300;2022-09-27T05:34:03;11.30;;;10.20;;
3726;SDS011;1879;45.876;12.300;2022-09-27T05:36:36;10.53;;;9.53;;
3726;SDS011;1879;45.876;12.300;2022-09-27T05:39:04;9.43;;;8.53;;
3726;SDS011;1879;45.876;12.300;2022-09-27T05:41:32;12.07;;;9.97;;
3726;SDS011;1879;45.876;12.300;2022-09-27T05:44:01;10.60;;;9.60;;
3726;SDS011;1879;45.876;12.300;2022-09-27T05:46:30;10.87;;;9.77;;
3726;SDS011;1879;45.876;12.300;2022-09-27T05:48:57;10.10;;;9.10;;
3726;SDS011;1879;45.876;12.300;2022-09-27T05:51:24;10.67;;;9.57;;
3726;SDS011;1879;45.876;12.300;2022-09-27T05:53:51;12.00;;;10.47;;
3726;SDS011;1879;45.876;12.300;2022-09-27T05:56:19;11.67;;;10.47;;
3726;SDS011;1879;45.876;12.300;2022-09-27T05:58:46;9.10;;;8.20;;
3726;SDS011;1879;45.876;12.300;2022-09-27T06:01:13;8.83;;;7.73;;
3726;SDS011;1879;45.876;12.300;2022-09-27T06:03:41;10.63;;;8.87;;
3726;SDS011;1879;45.876;12.300;2022-09-27T06:06:08;8.90;;;8.00;;
3726;SDS011;1879;45.876;12.300;2022-09-27T06:08:35;9.07;;;8.17;;
3726;SDS011;1879;45.876;12.300;2022-09-27T06:11:06;10.20;;;9.20;;
3726;SDS011;1879;45.876;12.300;2022-09-27T06:13:35;12.60;;;8.30;;
3726;SDS011;1879;45.876;12.300;2022-09-27T06:16:03;7.23;;;6.47;;
3726;SDS011;1879;45.876;12.300;2022-09-27T06:18:31;9.20;;;7.17;;
3726;SDS011;1879;45.876;12.300;2022-09-27T06:20:58;7.67;;;6.97;;
3726;SDS011;1879;45.876;12.300;2022-09-27T06:23:25;8.60;;;7.50;;
3726;SDS011;1879;45.876;12.300;2022-09-27T06:25:53;7.93;;;7.20;;
3726;SDS011;1879;45.876;12.300;2022-09-27T06:28:20;8.50;;;7.20;;
3726;SDS011;1879;45.876;12.300;2022-09-27T06:30:49;7.20;;;6.60;;
3726;SDS011;1879;45.876;12.300;2022-09-27T06:33:17;9.03;;;8.13;;
3726;SDS011;1879;45.876;12.300;2022-09-27T06:35:45;8.13;;;7.30;;
3726;SDS011;1879;45.876;12.300;2022-09-27T06:38:14;9.40;;;7.30;;
3726;SDS011;1879;45.876;12.300;2022-09-27T06:40:44;8.30;;;7.50;;
3726;SDS011;1879;45.876;12.300;2022-09-27T06:43:11;8.33;;;7.53;;
3726;SDS011;1879;45.876;12.300;2022-09-27T06:45:39;6.00;;;5.37;;
3726;SDS011;1879;45.876;12.300;2022-09-27T06:48:08;8.87;;;7.97;;
3726;SDS011;1879;45.876;12.300;2022-09-27T06:50:37;8.23;;;7.43;;
3726;SDS011;1879;45.876;12.300;2022-09-27T06:53:05;9.00;;;8.10;;
3726;SDS011;1879;45.876;12.300;2022-09-27T06:55:34;7.97;;;7.17;;
3726;SDS011;1879;45.876;12.300;2022-09-27T06:58:01;5.97;;;5.43;;
3726;SDS011;1879;45.876;12.300;2022-09-27T07:00:48;6.40;;;5.80;;
3726;SDS011;1879;45.876;12.300;2022-09-27T07:03:17;8.13;;;7.40;;
3726;SDS011;1879;45.876;12.300;2022-09-27T07:05:53;8.30;;;7.53;;
3726;SDS011;1879;45.876;12.300;2022-09-27T07:08:21;8.67;;;7.77;;
3726;SDS011;1879;45.876;12.300;2022-09-27T07:10:50;8.50;;;7.00;;
3726;SDS011;1879;45.876;12.300;2022-09-27T07:13:19;8.20;;;7.07;;
3726;SDS011;1879;45.876;12.300;2022-09-27T07:15:47;9.10;;;8.20;;
3726;SDS011;1879;45.876;12.300;2022-09-27T07:18:14;11.17;;;7.97;;
3726;SDS011;1879;45.876;12.300;2022-09-27T07:20:42;6.53;;;5.90;;
3726;SDS011;1879;45.876;12.300;2022-09-27T07:23:09;8.73;;;7.83;;
3726;SDS011;1879;45.876;12.300;2022-09-27T07:25:37;9.60;;;7.73;;
3726;SDS011;1879;45.876;12.300;2022-09-27T07:28:05;7.73;;;6.97;;
3726;SDS011;1879;45.876;12.300;2022-09-27T07:30:33;9.70;;;7.87;;
3726;SDS011;1879;45.876;12.300;2022-09-27T07:33:03;8.20;;;7.40;;
3726;SDS011;1879;45.876;12.300;2022-09-27T07:35:30;9.90;;;7.60;;
3726;SDS011;1879;45.876;12.300;2022-09-27T07:37:59;8.13;;;7.43;;
3726;SDS011;1879;45.876;12.300;2022-09-27T07:40:27;8.40;;;7.60;;
3726;SDS011;1879;45.876;12.300;2022-09-27T07:42:54;9.77;;;8.50;;
3726;SDS011;1879;45.876;12.300;2022-09-27T07:45:22;8.30;;;7.47;;
3726;SDS011;1879;45.876;12.300;2022-09-27T07:47:49;9.40;;;8.50;;
3726;SDS011;1879;45.876;12.300;2022-09-27T07:50:17;8.60;;;7.70;;
3726;SDS011;1879;45.876;12.300;2022-09-27T07:52:44;8.47;;;7.63;;
3726;SDS011;1879;45.876;12.300;2022-09-27T07:55:16;9.83;;;7.03;;
3726;SDS011;1879;45.876;12.300;2022-09-27T07:57:44;7.70;;;6.90;;
3726;SDS011;1879;45.876;12.300;2022-09-27T08:00:12;7.53;;;6.80;;
3726;SDS011;1879;45.876;12.300;2022-09-27T08:02:40;7.87;;;6.73;;
3726;SDS011;1879;45.876;12.300;2022-09-27T08:05:08;8.00;;;7.13;;
3726;SDS011;1879;45.876;12.300;2022-09-27T08:07:39;3.90;;;3.40;;
3726;SDS011;1879;45.876;12.300;2022-09-27T08:10:06;5.77;;;4.00;;
3726;SDS011;1879;45.876;12.300;2022-09-27T08:12:38;4.37;;;3.97;;
3726;SDS011;1879;45.876;12.300;2022-09-27T08:15:05;4.47;;;2.50;;
3726;SDS011;1879;45.876;12.300;2022-09-27T08:17:33;3.70;;;3.30;;
3726;SDS011;1879;45.876;12.300;2022-09-27T08:20:00;5.20;;;3.83;;
3726;SDS011;1879;45.876;12.300;2022-09-27T08:22:30;3.90;;;3.50;;
3726;SDS011;1879;45.876;12.300;2022-09-27T08:24:57;5.90;;;3.23;;
3726;SDS011;1879;45.876;12.300;2022-09-27T08:27:24;8.13;;;3.03;;
3726;SDS011;1879;45.876;12.300;2022-09-27T08:29:52;4.90;;;2.80;;
3726;SDS011;1879;45.876;12.300;2022-09-27T08:32:20;3.37;;;3.07;;
3726;SDS011;1879;45.876;12.300;2022-09-27T08:34:47;3.70;;;3.40;;
3726;SDS011;1879;45.876;12.300;2022-09-27T08:37:14;3.90;;;3.60;;
3726;SDS011;1879;45.876;12.300;2022-09-27T08:39:41;3.97;;;3.60;;
3726;SDS011;1879;45.876;12.300;2022-09-27T08:42:12;4.50;;;4.10;;
3726;SDS011;1879;45.876;12.300;2022-09-27T08:44:49;4.17;;;3.77;;
3726;SDS011;1879;45.876;12.300;2022-09-27T08:47:26;4.20;;;3.90;;
3726;SDS011;1879;45.876;12.300;2022-09-27T08:49:57;2.80;;;2.60;;
3726;SDS011;1879;45.876;12.300;2022-09-27T08:52:30;2.87;;;2.67;;
3726;SDS011;1879;45.876;12.300;2022-09-27T08:55:02;3.10;;;2.80;;
3726;SDS011;1879;45.876;12.300;2022-09-27T08:57:34;3.97;;;3.23;;
3726;SDS011;1879;45.876;12.300;2022-09-27T09:00:04;2.87;;;2.67;;
3726;SDS011;1879;45.876;12.300;2022-09-27T09:02:33;3.07;;;2.87;;
3726;SDS011;1879;45.876;12.300;2022-09-27T09:05:02;4.50;;;4.00;;
3726;SDS011;1879;45.876;12.300;2022-09-27T09:07:40;4.00;;;3.70;;
3726;SDS011;1879;45.876;12.300;2022-09-27T09:10:19;5.30;;;3.60;;
3726;SDS011;1879;45.876;12.300;2022-09-27T09:13:17;3.67;;;3.37;;
3726;SDS011;1879;45.876;12.300;2022-09-27T09:16:01;3.87;;;3.57;;
3726;SDS011;1879;45.876;12.300;2022-09-27T09:18:38;2.60;;;2.40;;
3726;SDS011;1879;45.876;12.300;2022-09-27T09:21:21;2.50;;;2.30;;
3726;SDS011;1879;45.876;12.300;2022-09-27T09:24:00;2.03;;;1.87;;
3726;SDS011;1879;45.876;12.300;2022-09-27T09:26:47;2.27;;;1.90;;
3726;SDS011;1879;45.876;12.300;2022-09-27T09:29:23;2.43;;;1.77;;
3726;SDS011;1879;45.876;12.300;2022-09-27T09:32:04;2.53;;;1.97;;
3726;SDS011;1879;45.876;12.300;2022-09-27T09:34:44;2.10;;;1.90;;
3726;SDS011;1879;45.876;12.300;2022-09-27T09:37:18;2.33;;;2.13;;
3726;SDS011;1879;45.876;12.300;2022-09-27T09:39:49;2.50;;;2.30;;
3726;SDS011;1879;45.876;12.300;2022-09-27T09:42:21;2.40;;;2.20;;
3726;SDS011;1879;45.876;12.300;2022-09-27T09:44:55;2.33;;;2.10;;
3726;SDS011;1879;45.876;12.300;2022-09-27T09:47:28;2.37;;;2.17;;
3726;SDS011;1879;45.876;12.300;2022-09-27T09:50:02;3.30;;;2.07;;
3726;SDS011;1879;45.876;12.300;2022-09-27T09:52:35;2.83;;;2.23;;
3726;SDS011;1879;45.876;12.300;2022-09-27T09:55:06;3.00;;;1.73;;
3726;SDS011;1879;45.876;12.300;2022-09-27T09:57:44;1.80;;;1.70;;
3726;SDS011;1879;45.876;12.300;2022-09-27T10:00:19;1.80;;;1.70;;
3726;SDS011;1879;45.876;12.300;2022-09-27T10:02:50;2.20;;;2.00;;
3726;SDS011;1879;45.876;12.300;2022-09-27T10:05:20;1.97;;;1.77;;
3726;SDS011;1879;45.876;12.300;2022-09-27T10:07:49;2.60;;;2.00;;
3726;SDS011;1879;45.876;12.300;2022-09-27T10:10:18;2.47;;;2.27;;
3726;SDS011;1879;45.876;12.300;2022-09-27T10:12:46;2.40;;;1.90;;
3726;SDS011;1879;45.876;12.300;2022-09-27T10:15:15;2.13;;;1.80;;
3726;SDS011;1879;45.876;12.300;2022-09-27T10:17:45;2.30;;;2.10;;
3726;SDS011;1879;45.876;12.300;2022-09-27T10:20:23;2.40;;;2.20;;
3726;SDS011;1879;45.876;12.300;2022-09-27T10:25:56;2.90;;;1.97;;
3726;SDS011;1879;45.876;12.300;2022-09-27T10:28:25;2.33;;;1.87;;
3726;SDS011;1879;45.876;12.300;2022-09-27T10:30:57;3.07;;;2.50;;
3726;SDS011;1879;45.876;12.300;2022-09-27T10:33:27;3.63;;;2.33;;
3726;SDS011;1879;45.876;12.300;2022-09-27T10:35:57;2.40;;;2.20;;
3726;SDS011;1879;45.876;12.300;2022-09-27T10:38:25;2.90;;;2.67;;
3726;SDS011;1879;45.876;12.300;2022-09-27T10:40:54;2.80;;;2.60;;
3726;SDS011;1879;45.876;12.300;2022-09-27T10:43:27;3.47;;;2.70;;
3726;SDS011;1879;45.876;12.300;2022-09-27T10:45:59;2.50;;;2.30;;
3726;SDS011;1879;45.876;12.300;2022-09-27T10:48:29;2.40;;;2.20;;
3726;SDS011;1879;45.876;12.300;2022-09-27T10:50:58;2.60;;;2.40;;
3726;SDS011;1879;45.876;12.300;2022-09-27T10:53:26;2.37;;;2.17;;
3726;SDS011;1879;45.876;12.300;2022-09-27T10:55:56;2.63;;;2.43;;
3726;SDS011;1879;45.876;12.300;2022-09-27T10:58:24;3.07;;;2.77;;
3726;SDS011;1879;45.876;12.300;2022-09-27T11:00:54;3.50;;;2.50;;
3726;SDS011;1879;45.876;12.300;2022-09-27T11:03:25;2.20;;;2.00;;
3726;SDS011;1879;45.876;12.300;2022-09-27T11:05:54;2.80;;;2.60;;
3726;SDS011;1879;45.876;12.300;2022-09-27T11:08:27;2.60;;;2.40;;
3726;SDS011;1879;45.876;12.300;2022-09-27T11:11:00;2.80;;;2.47;;
3726;SDS011;1879;45.876;12.300;2022-09-27T11:13:44;2.60;;;2.30;;
3726;SDS011;1879;45.876;12.300;2022-09-27T11:16:29;2.50;;;2.30;;
3726;SDS011;1879;45.876;12.300;2022-09-27T11:19:10;2.53;;;2.00;;
3726;SDS011;1879;45.876;12.300;2022-09-27T11:22:00;2.60;;;2.40;;
3726;SDS011;1879;45.876;12.300;2022-09-27T11:24:48;2.47;;;2.27;;
3726;SDS011;1879;45.876;12.300;2022-09-27T11:27:27;1.90;;;1.80;;
3726;SDS011;1879;45.876;12.300;2022-09-27T11:30:07;2.43;;;2.23;;
3726;SDS011;1879;45.876;12.300;2022-09-27T11:32:41;3.17;;;2.10;;
3726;SDS011;1879;45.876;12.300;2022-09-27T11:35:27;2.10;;;1.83;;
3726;SDS011;1879;45.876;12.300;2022-09-27T11:38:16;3.10;;;1.93;;
3726;SDS011;1879;45.876;12.300;2022-09-27T11:40:55;2.07;;;1.90;;
3726;SDS011;1879;45.876;12.300;2022-09-27T11:43:43;2.30;;;2.10;;
3726;SDS011;1879;45.876;12.300;2022-09-27T11:46:28;2.30;;;2.10;;
3726;SDS011;1879;45.876;12.300;2022-09-27T11:52:00;2.30;;;2.10;;
3726;SDS011;1879;45.876;12.300;2022-09-27T11:54:44;3.00;;;2.20;;
3726;SDS011;1879;45.876;12.300;2022-09-27T11:57:26;3.10;;;2.20;;
3726;SDS011;1879;45.876;12.300;2022-09-27T12:00:08;2.03;;;1.93;;
3726;SDS011;1879;45.876;12.300;2022-09-27T12:02:55;1.63;;;1.53;;
3726;SDS011;1879;45.876;12.300;2022-09-27T12:05:46;3.87;;;1.80;;
3726;SDS011;1879;45.876;12.300;2022-09-27T12:08:29;1.70;;;1.60;;
3726;SDS011;1879;45.876;12.300;2022-09-27T12:11:02;2.47;;;2.27;;
3726;SDS011;1879;45.876;12.300;2022-09-27T12:13:39;1.93;;;1.60;;
3726;SDS011;1879;45.876;12.300;2022-09-27T12:16:14;4.03;;;2.10;;
3726;SDS011;1879;45.876;12.300;2022-09-27T12:18:42;2.30;;;2.07;;
3726;SDS011;1879;45.876;12.300;2022-09-27T12:21:12;1.80;;;1.70;;
3726;SDS011;1879;45.876;12.300;2022-09-27T12:23:41;1.73;;;1.63;;
3726;SDS011;1879;45.876;12.300;2022-09-27T12:26:10;2.10;;;1.97;;
3726;SDS011;1879;45.876;12.300;2022-09-27T12:28:43;2.30;;;2.10;;
3726;SDS011;1879;45.876;12.300;2022-09-27T12:31:16;1.77;;;1.67;;
3726;SDS011;1879;45.876;12.300;2022-09-27T12:33:49;2.67;;;2.47;;
3726;SDS011;1879;45.876;12.300;2022-09-27T12:36:24;2.43;;;1.93;;
3726;SDS011;1879;45.876;12.300;2022-09-27T12:39:00;2.23;;;2.03;;
3726;SDS011;1879;45.876;12.300;2022-09-27T12:41:33;1.90;;;1.80;;
3726;SDS011;1879;45.876;12.300;2022-09-27T12:44:05;2.00;;;1.90;;
3726;SDS011;1879;45.876;12.300;2022-09-27T12:46:36;2.53;;;1.80;;
3726;SDS011;1879;45.876;12.300;2022-09-27T12:49:13;2.10;;;2.00;;
3726;SDS011;1879;45.876;12.300;2022-09-27T12:51:50;3.70;;;2.00;;
3726;SDS011;1879;45.876;12.300;2022-09-27T12:54:25;5.53;;;2.23;;
3726;SDS011;1879;45.876;12.300;2022-09-27T12:57:18;2.70;;;2.60;;
3726;SDS011;1879;45.876;12.300;2022-09-27T13:00:03;2.60;;;2.40;;
3726;SDS011;1879;45.876;12.300;2022-09-27T13:02:45;2.30;;;2.20;;
3726;SDS011;1879;45.876;12.300;2022-09-27T13:05:49;3.20;;;1.83;;
3726;SDS011;1879;45.876;12.300;2022-09-27T13:08:33;2.40;;;2.20;;
3726;SDS011;1879;45.876;12.300;2022-09-27T13:11:19;2.80;;;2.60;;
3726;SDS011;1879;45.876;12.300;2022-09-27T13:13:53;2.70;;;2.50;;
3726;SDS011;1879;45.876;12.300;2022-09-27T13:16:23;3.53;;;2.37;;
3726;SDS011;1879;45.876;12.300;2022-09-27T13:18:53;2.20;;;2.00;;
3726;SDS011;1879;45.876;12.300;2022-09-27T13:24:43;3.07;;;2.30;;
3726;SDS011;1879;45.876;12.300;2022-09-27T13:36:19;2.70;;;2.50;;
3726;SDS011;1879;45.876;12.300;2022-09-27T13:38:57;2.93;;;2.73;;
3726;SDS011;1879;45.876;12.300;2022-09-27T13:41:53;2.63;;;2.43;;
3726;SDS011;1879;45.876;12.300;2022-09-27T13:44:30;2.57;;;2.37;;
3726;SDS011;1879;45.876;12.300;2022-09-27T13:47:14;3.50;;;3.30;;
3726;SDS011;1879;45.876;12.300;2022-09-27T13:49:52;3.47;;;3.17;;
3726;SDS011;1879;45.876;12.300;2022-09-27T13:52:25;3.40;;;3.10;;
3726;SDS011;1879;45.876;12.300;2022-09-27T13:54:58;4.90;;;2.93;;
3726;SDS011;1879;45.876;12.300;2022-09-27T13:57:37;4.10;;;1.97;;
3726;SDS011;1879;45.876;12.300;2022-09-27T14:00:05;2.00;;;1.83;;
3726;SDS011;1879;45.876;12.300;2022-09-27T14:02:37;2.10;;;1.77;;
3726;SDS011;1879;45.876;12.300;2022-09-27T14:05:10;3.67;;;1.90;;
3726;SDS011;1879;45.876;12.300;2022-09-27T14:07:43;1.90;;;1.70;;
3726;SDS011;1879;45.876;12.300;2022-09-27T14:10:12;2.67;;;2.30;;
3726;SDS011;1879;45.876;12.300;2022-09-27T14:12:41;2.47;;;2.27;;
3726;SDS011;1879;45.876;12.300;2022-09-27T14:15:15;2.43;;;2.23;;
3726;SDS011;1879;45.876;12.300;2022-09-27T14:17:46;2.63;;;2.43;;
3726;SDS011;1879;45.876;12.300;2022-09-27T14:20:34;3.07;;;2.77;;
3726;SDS011;1879;45.876;12.300;2022-09-27T14:23:03;2.70;;;2.50;;
3726;SDS011;1879;45.876;12.300;2022-09-27T14:25:30;3.07;;;2.87;;
3726;SDS011;1879;45.876;12.300;2022-09-27T14:27:57;2.43;;;2.13;;
3726;SDS011;1879;45.876;12.300;2022-09-27T14:30:25;2.73;;;2.53;;
3726;SDS011;1879;45.876;12.300;2022-09-27T14:32:53;2.40;;;2.10;;
3726;SDS011;1879;45.876;12.300;2022-09-27T14:35:25;2.73;;;1.73;;
3726;SDS011;1879;45.876;12.300;2022-09-27T14:38:14;2.20;;;2.00;;
3726;SDS011;1879;45.876;12.300;2022-09-27T14:40:53;2.33;;;2.10;;
3726;SDS011;1879;45.876;12.300;2022-09-27T14:43:23;2.70;;;1.90;;
3726;SDS011;1879;45.876;12.300;2022-09-27T14:45:51;2.50;;;2.30;;
3726;SDS011;1879;45.876;12.300;2022-09-27T14:48:26;2.97;;;2.27;;
3726;SDS011;1879;45.876;12.300;2022-09-27T14:50:56;2.30;;;2.10;;
3726;SDS011;1879;45.876;12.300;2022-09-27T14:53:30;2.63;;;2.40;;
3726;SDS011;1879;45.876;12.300;2022-09-27T14:55:58;3.87;;;2.47;;
3726;SDS011;1879;45.876;12.300;2022-09-27T14:58:26;3.83;;;2.77;;
3726;SDS011;1879;45.876;12.300;2022-09-27T15:00:55;4.40;;;2.80;;
3726;SDS011;1879;45.876;12.300;2022-09-27T15:03:25;2.70;;;2.50;;
3726;SDS011;1879;45.876;12.300;2022-09-27T15:05:55;4.27;;;3.37;;
3726;SDS011;1879;45.876;12.300;2022-09-27T15:08:24;4.03;;;3.63;;
3726;SDS011;1879;45.876;12.300;2022-09-27T15:10:55;3.70;;;3.40;;
3726;SDS011;1879;45.876;12.300;2022-09-27T15:13:23;4.17;;;3.23;;
3726;SDS011;1879;45.876;12.300;2022-09-27T15:15:51;3.20;;;2.80;;
3726;SDS011;1879;45.876;12.300;2022-09-27T15:18:28;2.87;;;2.67;;
3726;SDS011;1879;45.876;12.300;2022-09-27T15:20:58;3.07;;;2.87;;
3726;SDS011;1879;45.876;12.300;2022-09-27T15:23:27;3.00;;;2.80;;
3726;SDS011;1879;45.876;12.300;2022-09-27T15:25:59;3.07;;;2.77;;
3726;SDS011;1879;45.876;12.300;2022-09-27T15:28:33;4.97;;;2.53;;
3726;SDS011;1879;45.876;12.300;2022-09-27T15:31:04;2.93;;;2.57;;
3726;SDS011;1879;45.876;12.300;2022-09-27T15:33:32;2.60;;;2.40;;
3726;SDS011;1879;45.876;12.300;2022-09-27T15:36:01;2.47;;;2.27;;
3726;SDS011;1879;45.876;12.300;2022-09-27T15:38:30;2.77;;;2.40;;
3726;SDS011;1879;45.876;12.300;2022-09-27T15:41:00;3.57;;;2.50;;
3726;SDS011;1879;45.876;12.300;2022-09-27T15:43:33;2.87;;;2.60;;
3726;SDS011;1879;45.876;12.300;2022-09-27T15:46:04;2.57;;;2.37;;
3726;SDS011;1879;45.876;12.300;2022-09-27T15:51:45;2.57;;;2.37;;
3726;SDS011;1879;45.876;12.300;2022-09-27T15:54:15;3.80;;;2.57;;
3726;SDS011;1879;45.876;12.300;2022-09-27T15:56:45;3.50;;;2.53;;
3726;SDS011;1879;45.876;12.300;2022-09-27T15:59:15;2.93;;;2.63;;